Time;durP1;ratioP1;P1;durP2;ratioP2;P2;SDS_P1;SDS_P2;PMS_P1;PMS_P2;Temp;Humidity;BMP_temperature;BMP_pressure;BME280_temperature;BME280_humidity;BME280_pressure;Samples;Min_cycle;Max_cycle;Signal;HPM_P1;HPM_P2
2022/11/24 00:00:49;;;;;;;114.82;44.88;;;;;;;-1.03;100.00;99685.94;5112802;28;20031;-78
2022/11/24 00:03:14;;;;;;;104.28;44.00;;;;;;;-1.05;100.00;99679.97;5112722;28;20465;-78
2022/11/24 00:05:39;;;;;;;114.00;44.05;;;;;;;-0.99;100.00;99685.88;5112900;28;20047;-78
2022/11/24 00:08:05;;;;;;;93.70;41.67;;;;;;;-0.98;100.00;99695.88;5112729;28;20035;-77
2022/11/24 00:10:30;;;;;;;100.53;42.53;;;;;;;-0.99;100.00;99685.88;5112994;28;20071;-78
2022/11/24 00:12:55;;;;;;;104.82;43.78;;;;;;;-0.92;100.00;99696.97;5114154;28;20099;-79
2022/11/24 00:15:21;;;;;;;103.78;42.28;;;;;;;-0.89;100.00;99705.31;5113678;28;20031;-78
2022/11/24 00:17:46;;;;;;;98.90;41.20;;;;;;;-0.91;100.00;99695.72;5112638;28;20478;-78
2022/11/24 00:20:11;;;;;;;99.75;40.83;;;;;;;-0.89;100.00;99685.66;5112548;28;20024;-78
2022/11/24 00:22:37;;;;;;;98.05;42.10;;;;;;;-0.88;100.00;99698.47;5077503;28;20473;-78
2022/11/24 00:25:02;;;;;;;87.07;40.17;;;;;;;-0.88;100.00;99690.06;5112587;28;20035;-78
2022/11/24 00:27:28;;;;;;;93.88;40.53;;;;;;;-0.81;100.00;99697.53;5112221;28;20035;-78
2022/11/24 00:29:53;;;;;;;93.95;41.28;;;;;;;-0.77;100.00;99698.28;5113148;28;20111;-79
2022/11/24 00:32:19;;;;;;;88.43;39.85;;;;;;;-0.72;100.00;99697.78;5114818;28;20073;-78
2022/11/24 00:34:44;;;;;;;94.65;43.13;;;;;;;-0.68;100.00;99701.28;5114680;28;20114;-78
2022/11/24 00:37:09;;;;;;;93.30;40.40;;;;;;;-0.67;100.00;99693.66;5114526;28;20043;-78
2022/11/24 00:39:34;;;;;;;104.32;44.70;;;;;;;-0.66;100.00;99704.44;5096138;28;20081;-78
2022/11/24 00:42:00;;;;;;;101.60;42.63;;;;;;;-0.62;100.00;99693.16;5114393;28;20035;-78
2022/11/24 00:44:26;;;;;;;100.60;44.53;;;;;;;-0.61;100.00;99689.91;5114446;28;20024;-79
2022/11/24 00:46:51;;;;;;;109.65;45.17;;;;;;;-0.64;100.00;99693.59;5079200;28;20023;-79
2022/11/24 00:49:16;;;;;;;97.25;41.13;;;;;;;-0.59;100.00;99695.91;5114158;28;20028;-78
2022/11/24 00:51:42;;;;;;;96.88;41.83;;;;;;;-0.57;100.00;99701.84;5113515;28;20035;-78
2022/11/24 00:54:07;;;;;;;90.53;40.25;;;;;;;-0.56;100.00;99694.22;5112981;28;20035;-79
2022/11/24 00:56:33;;;;;;;96.00;41.00;;;;;;;-0.57;100.00;99692.66;5112666;28;20023;-77
2022/11/24 00:58:59;;;;;;;94.65;39.63;;;;;;;-0.53;100.00;99687.75;5094127;28;20019;-79
2022/11/24 01:01:26;;;;;;;93.55;39.75;;;;;;;-0.47;100.00;99695.22;5111886;28;20097;-79
2022/11/24 01:03:54;;;;;;;94.45;38.72;;;;;;;-0.45;100.00;99698.41;5111814;28;20114;-79
2022/11/24 01:06:22;;;;;;;96.07;41.25;;;;;;;-0.40;100.00;99692.28;5093681;28;20115;-79
2022/11/24 01:08:48;;;;;;;106.97;44.03;;;;;;;-0.37;100.00;99694.22;5111795;28;20031;-79
2022/11/24 01:11:17;;;;;;;99.50;43.67;;;;;;;-0.36;100.00;99684.56;5093449;28;20038;-79
2022/11/24 01:13:45;;;;;;;99.32;45.10;;;;;;;-0.31;100.00;99689.69;5093620;28;20431;-78
2022/11/24 01:16:24;;;;;;;100.22;44.20;;;;;;;-0.27;100.00;99692.41;5112061;28;20384;-79
2022/11/24 01:18:50;;;;;;;98.13;45.55;;;;;;;-0.23;100.00;99695.16;5111986;28;20024;-78
2022/11/24 01:21:17;;;;;;;99.22;43.35;;;;;;;-0.22;100.00;99700.31;5111627;28;20093;-78
2022/11/24 01:23:42;;;;;;;107.10;45.80;;;;;;;-0.20;100.00;99686.63;5093593;28;20444;-79
2022/11/24 01:26:10;;;;;;;101.05;44.08;;;;;;;-0.16;100.00;99704.19;5113911;28;20479;-79
2022/11/24 01:28:35;;;;;;;105.25;44.42;;;;;;;-0.17;100.00;99693.38;5078687;28;20372;-79
2022/11/24 01:31:03;;;;;;;95.85;42.63;;;;;;;-0.18;100.00;99695.44;5113929;28;20077;-78
2022/11/24 01:33:29;;;;;;;99.53;43.80;;;;;;;-0.21;100.00;99695.50;5095523;28;20102;-78
2022/11/24 01:35:56;;;;;;;96.40;43.60;;;;;;;-0.17;100.00;99696.19;5113632;28;20466;-78
2022/11/24 01:38:21;;;;;;;89.18;40.72;;;;;;;-0.15;100.00;99700.16;5113703;28;20085;-78
2022/11/24 01:40:46;;;;;;;103.72;41.38;;;;;;;-0.13;100.00;99702.53;5113648;28;20027;-80
2022/11/24 01:43:20;;;;;;;97.32;41.83;;;;;;;-0.13;100.00;99697.72;5095488;28;20106;-78
2022/11/24 01:45:46;;;;;;;101.72;41.58;;;;;;;-0.14;100.00;99696.13;5113654;28;20027;-79
2022/11/24 01:48:21;;;;;;;93.05;40.50;;;;;;;-0.10;100.00;99698.84;5113446;28;20487;-79
2022/11/24 01:50:52;;;;;;;104.47;40.50;;;;;;;-0.08;100.00;99699.22;5095908;28;20073;-79
2022/11/24 01:53:19;;;;;;;105.38;41.17;;;;;;;-0.07;100.00;99706.41;5113538;28;20423;-79
2022/11/24 01:55:45;;;;;;;98.43;41.47;;;;;;;-0.06;100.00;99708.78;5095461;28;20379;-78
2022/11/24 01:58:21;;;;;;;89.05;37.60;;;;;;;-0.04;100.00;99711.16;5114052;28;20023;-80
2022/11/24 02:00:46;;;;;;;80.18;38.70;;;;;;;-0.02;100.00;99711.50;5115641;28;20464;-79
2022/11/24 02:03:15;;;;;;;93.80;38.83;;;;;;;0.01;100.00;99716.25;5115491;28;20027;-80
2022/11/24 02:05:45;;;;;;;89.72;37.22;;;;;;;0.02;100.00;99707.38;5114878;28;20074;-79
2022/11/24 02:08:24;;;;;;;91.07;38.22;;;;;;;0.02;100.00;99703.81;5095254;28;20023;-78
2022/11/24 02:10:50;;;;;;;83.20;36.85;;;;;;;0.03;100.00;99696.94;5113530;28;20421;-79
2022/11/24 02:13:15;;;;;;;85.50;36.38;;;;;;;0.05;100.00;99708.53;5113310;28;20499;-79
2022/11/24 02:15:41;;;;;;;78.55;34.90;;;;;;;0.05;100.00;99708.53;5095276;28;20107;-79
2022/11/24 02:18:06;;;;;;;93.70;40.83;;;;;;;0.05;100.00;99711.34;5113318;28;20480;-78
2022/11/24 02:20:33;;;;;;;89.75;37.25;;;;;;;-0.02;100.00;99701.06;5095253;28;20043;-79
2022/11/24 02:23:07;;;;;;;93.47;42.97;;;;;;;-0.01;100.00;99701.84;5113626;28;20019;-79
2022/11/24 02:25:47;;;;;;;96.68;39.95;;;;;;;-0.03;100.00;99707.13;5113430;28;20024;-78
2022/11/24 02:28:16;;;;;;;84.47;37.80;;;;;;;-0.05;100.00;99704.75;5094983;28;20031;-78
2022/11/24 02:30:41;;;;;;;92.07;39.60;;;;;;;-0.04;100.00;99697.13;5095371;28;20027;-78
2022/11/24 02:33:07;;;;;;;88.97;38.30;;;;;;;-0.04;100.00;99694.31;5113243;28;20027;-77
2022/11/24 02:35:32;;;;;;;85.63;37.60;;;;;;;-0.03;100.00;99691.09;5097292;28;20027;-78
2022/11/24 02:37:58;;;;;;;91.57;39.60;;;;;;;-0.13;100.00;99671.66;5098401;28;20066;-77
2022/11/24 02:40:26;;;;;;;89.00;36.88;;;;;;;-0.03;100.00;99691.09;5114963;28;20084;-79
2022/11/24 02:42:57;;;;;;;85.25;39.00;;;;;;;-0.01;100.00;99690.63;5096587;28;20015;-78
2022/11/24 02:45:23;;;;;;;83.50;37.30;;;;;;;0.04;100.00;99701.34;5096257;28;20032;-78
2022/11/24 02:47:49;;;;;;;87.15;38.92;;;;;;;0.02;100.00;99692.56;5114576;28;20350;-78
2022/11/24 02:50:14;;;;;;;81.97;36.42;;;;;;;-0.01;100.00;99694.22;5079253;28;20027;-78
2022/11/24 02:52:40;;;;;;;85.10;36.65;;;;;;;0.01;100.00;99697.41;5079316;28;20133;-78
2022/11/24 02:55:05;;;;;;;82.10;37.58;;;;;;;0.01;100.00;99703.00;5114332;28;20031;-79
2022/11/24 02:57:31;;;;;;;82.20;35.67;;;;;;;0.02;100.00;99707.38;5116015;28;20026;-78
2022/11/24 02:59:56;;;;;;;80.38;35.85;;;;;;;0.06;100.00;99705.31;5114755;28;20464;-78
2022/11/24 03:02:22;;;;;;;85.65;35.05;;;;;;;0.12;100.00;99711.19;5095826;28;20328;-78
2022/11/24 03:04:47;;;;;;;86.90;39.28;;;;;;;0.16;100.00;99711.91;5114183;28;20129;-78
2022/11/24 03:07:13;;;;;;;95.35;39.85;;;;;;;0.21;100.00;99708.56;5114330;28;20024;-78
2022/11/24 03:09:38;;;;;;;97.95;40.65;;;;;;;0.20;100.00;99714.63;5114298;28;20239;-78
2022/11/24 03:12:04;;;;;;;106.88;43.08;;;;;;;0.26;100.00;99721.31;5096114;28;20058;-77
2022/11/24 03:14:29;;;;;;;89.10;40.10;;;;;;;0.21;100.00;99713.41;5115224;28;20372;-78
2022/11/24 03:16:55;;;;;;;92.80;41.00;;;;;;;0.25;100.00;99720.50;5116030;28;20468;-78
2022/11/24 03:19:20;;;;;;;103.57;42.35;;;;;;;0.26;100.00;99718.50;5098078;28;20019;-79
2022/11/24 03:21:45;;;;;;;94.93;39.47;;;;;;;0.29;100.00;99724.03;5116394;28;20023;-78
2022/11/24 03:24:11;;;;;;;91.25;41.10;;;;;;;0.31;100.00;99720.78;5115758;28;20046;-78
2022/11/24 03:26:36;;;;;;;91.18;40.17;;;;;;;0.31;100.00;99715.97;5116071;28;20032;-78
2022/11/24 03:29:01;;;;;;;88.93;41.63;;;;;;;0.33;100.00;99727.53;5115974;28;20024;-78
2022/11/24 03:31:27;;;;;;;92.18;40.83;;;;;;;0.34;100.00;99728.34;5116180;28;20142;-78
2022/11/24 03:33:52;;;;;;;87.93;38.47;;;;;;;0.31;100.00;99724.41;5097491;28;20357;-78
2022/11/24 03:36:18;;;;;;;98.60;40.30;;;;;;;0.38;100.00;99723.41;5115784;28;20368;-79
2022/11/24 03:38:43;;;;;;;91.78;38.75;;;;;;;0.42;100.00;99722.09;5115894;28;20074;-78
2022/11/24 03:41:09;;;;;;;96.80;38.38;;;;;;;0.45;100.00;99726.88;5080455;28;20015;-78
2022/11/24 03:43:34;;;;;;;93.68;41.55;;;;;;;0.46;100.00;99724.84;5080536;28;20553;-78
2022/11/24 03:45:59;;;;;;;100.38;40.15;;;;;;;0.47;100.00;99737.66;5115324;28;20030;-78
2022/11/24 03:48:25;;;;;;;86.03;37.60;;;;;;;0.47;100.00;99735.63;5115607;28;20023;-78
2022/11/24 03:50:56;;;;;;;85.82;40.20;;;;;;;0.51;100.00;99741.97;5097298;28;20022;-78
2022/11/24 03:53:22;;;;;;;93.57;39.53;;;;;;;0.55;100.00;99736.25;5097124;28;20023;-78
2022/11/24 03:55:47;;;;;;;95.05;41.83;;;;;;;0.54;100.00;99741.09;5097042;28;20027;-78
2022/11/24 03:58:13;;;;;;;91.88;39.85;;;;;;;0.52;100.00;99735.09;5115271;28;20464;-79
2022/11/24 04:00:38;;;;;;;84.00;38.42;;;;;;;0.53;100.00;99731.06;5115141;28;20011;-79
2022/11/24 04:03:04;;;;;;;86.13;38.78;;;;;;;0.54;100.00;99734.69;5115194;28;20028;-79
2022/11/24 04:05:29;;;;;;;79.20;36.03;;;;;;;0.55;100.00;99739.88;5080786;28;20446;-78
2022/11/24 04:07:56;;;;;;;84.07;37.65;;;;;;;0.56;100.00;99735.03;5076333;28;20042;-78
2022/11/24 04:10:22;;;;;;;95.90;38.40;;;;;;;0.59;100.00;99728.53;5094826;28;20024;-79
2022/11/24 04:12:47;;;;;;;89.22;38.05;;;;;;;0.60;100.00;99732.94;5095052;28;20024;-79
2022/11/24 04:15:17;;;;;;;82.13;39.00;;;;;;;0.60;100.00;99730.91;5094803;28;20069;-79
2022/11/24 04:17:44;;;;;;;88.50;38.58;;;;;;;0.58;100.00;99738.97;5076286;28;20067;-78
2022/11/24 04:20:10;;;;;;;83.18;37.53;;;;;;;0.58;100.00;99736.16;5094484;28;20027;-78
2022/11/24 04:22:35;;;;;;;89.18;36.17;;;;;;;0.58;100.00;99736.16;5076329;28;20023;-78
2022/11/24 04:25:01;;;;;;;84.28;37.75;;;;;;;0.59;100.00;99736.97;5094615;28;20028;-78
2022/11/24 04:27:27;;;;;;;90.07;40.03;;;;;;;0.57;100.00;99722.53;5076519;28;20417;-78
2022/11/24 04:29:53;;;;;;;90.20;38.92;;;;;;;0.58;100.00;99730.53;5075993;28;20024;-78
2022/11/24 04:32:18;;;;;;;87.93;39.90;;;;;;;0.60;100.00;99730.13;5094526;28;20034;-79
2022/11/24 04:34:43;;;;;;;128.80;53.17;;;;;;;0.61;100.00;99740.13;5094417;28;20063;-78
2022/11/24 04:37:09;;;;;;;109.35;47.92;;;;;;;0.61;100.00;99743.72;5094177;28;20056;-78
2022/11/24 04:39:34;;;;;;;86.28;39.30;;;;;;;0.60;100.00;99742.16;5076024;28;20050;-79
2022/11/24 04:41:59;;;;;;;85.70;38.88;;;;;;;0.54;100.00;99751.53;5076193;28;20152;-79
2022/11/24 04:44:25;;;;;;;79.75;39.00;;;;;;;0.55;100.00;99755.94;5094107;28;20024;-79
2022/11/24 04:46:50;;;;;;;80.75;38.38;;;;;;;0.52;100.00;99765.22;5094016;28;20035;-78
2022/11/24 04:49:16;;;;;;;83.78;38.88;;;;;;;0.49;100.00;99766.91;5094091;28;20034;-78
2022/11/24 04:51:41;;;;;;;84.95;38.08;;;;;;;0.51;100.00;99766.47;5059209;28;20457;-78
2022/11/24 04:54:09;;;;;;;83.75;37.72;;;;;;;0.45;100.00;99773.84;5093969;28;20016;-79
2022/11/24 04:56:35;;;;;;;81.22;37.13;;;;;;;0.42;100.00;99778.31;5059335;28;20042;-79
2022/11/24 04:59:02;;;;;;;83.07;37.63;;;;;;;0.40;100.00;99785.59;5093535;28;20016;-79
2022/11/24 05:01:28;;;;;;;81.78;36.33;;;;;;;0.38;100.00;99788.84;5093875;28;20041;-79
2022/11/24 05:03:54;;;;;;;80.45;37.47;;;;;;;0.32;100.00;99781.38;5078498;28;20101;-79
2022/11/24 05:06:20;;;;;;;83.00;36.65;;;;;;;0.33;100.00;99797.78;5079136;28;20431;-79
2022/11/24 05:08:47;;;;;;;81.43;34.60;;;;;;;0.29;100.00;99797.06;5095821;28;20055;-78
2022/11/24 05:11:15;;;;;;;83.22;37.80;;;;;;;0.27;100.00;99795.94;5095851;28;20110;-78
2022/11/24 05:13:42;;;;;;;85.10;37.33;;;;;;;0.25;100.00;99802.00;5096364;28;20108;-78
2022/11/24 05:16:09;;;;;;;89.60;38.15;;;;;;;0.20;100.00;99808.13;5114125;28;20020;-78
2022/11/24 05:18:34;;;;;;;89.00;38.97;;;;;;;0.17;100.00;99803.38;5095330;28;20023;-78
2022/11/24 05:21:00;;;;;;;96.75;39.70;;;;;;;0.24;100.00;99816.47;5095848;28;20028;-79
2022/11/24 05:23:27;;;;;;;88.63;37.58;;;;;;;0.26;100.00;99811.22;5114117;28;20024;-77
2022/11/24 05:25:53;;;;;;;85.40;36.80;;;;;;;0.31;100.00;99810.69;5114056;28;20020;-78
2022/11/24 05:28:21;;;;;;;90.47;36.28;;;;;;;0.30;100.00;99812.72;5114019;28;20133;-79
2022/11/24 05:30:48;;;;;;;80.60;36.45;;;;;;;0.36;100.00;99816.59;5113979;28;20026;-79
2022/11/24 05:33:17;;;;;;;80.35;36.70;;;;;;;0.41;100.00;99815.28;5113761;28;20520;-79
2022/11/24 05:35:45;;;;;;;80.05;36.17;;;;;;;0.45;100.00;99807.56;5062562;28;20023;-79
2022/11/24 05:38:11;;;;;;;85.85;36.58;;;;;;;0.47;100.00;99800.25;5062073;28;20032;-79
2022/11/24 05:40:39;;;;;;;92.20;38.70;;;;;;;0.47;100.00;99817.13;5113953;28;20527;-78
2022/11/24 05:43:04;;;;;;;90.47;40.22;;;;;;;0.49;100.00;99814.69;5095569;28;20015;-78
2022/11/24 05:45:30;;;;;;;92.68;37.80;;;;;;;0.51;100.00;99815.06;5094592;28;20092;-77
2022/11/24 05:48:03;;;;;;;88.03;34.78;;;;;;;0.50;100.00;99821.09;5095371;28;20484;-77
2022/11/24 05:50:31;;;;;;;94.10;41.08;;;;;;;0.49;100.00;99814.69;5095744;28;20055;-78
2022/11/24 05:53:02;;;;;;;94.68;36.92;;;;;;;0.52;100.00;99808.19;5113990;28;20077;-75
2022/11/24 05:55:28;;;;;;;;;;;;;;;0.54;100.00;99816.19;5062459;28;20035;-75
2022/11/24 05:58:12;;;;;;;81.95;35.33;;;;;;;0.52;100.00;99813.00;5113773;28;19907;-77
2022/11/24 06:00:37;;;;;;;87.78;36.42;;;;;;;0.52;100.00;99824.25;5113404;28;20077;-76
2022/11/24 06:03:03;;;;;;;88.43;39.72;;;;;;;0.51;100.00;99823.47;5113377;28;20027;-75
2022/11/24 06:05:30;;;;;;;92.40;41.10;;;;;;;0.50;100.00;99830.31;5104866;28;20056;-76
2022/11/24 06:07:57;;;;;;;93.60;40.58;;;;;;;0.52;100.00;99835.50;5095619;28;20119;-73
2022/11/24 06:10:24;;;;;;;108.95;46.88;;;;;;;0.51;100.00;99836.75;5099530;28;20039;-75
2022/11/24 06:12:50;;;;;;;98.13;42.03;;;;;;;0.52;100.00;99841.13;5118268;28;20076;-76
2022/11/24 06:15:17;;;;;;;88.68;39.67;;;;;;;0.53;100.00;99848.31;5100173;28;20028;-75
2022/11/24 06:17:50;;;;;;;90.03;38.92;;;;;;;0.52;100.00;99850.34;5118403;28;20092;-76
2022/11/24 06:20:17;;;;;;;91.10;38.92;;;;;;;0.51;100.00;99862.03;5117171;28;20027;-77
2022/11/24 06:22:43;;;;;;;79.95;36.90;;;;;;;0.50;100.00;99866.88;5118289;28;20024;-77
2022/11/24 06:25:09;;;;;;;87.90;37.42;;;;;;;0.49;100.00;99865.28;5116789;28;20019;-77
2022/11/24 06:27:34;;;;;;;89.28;36.40;;;;;;;0.47;100.00;99864.91;5116236;28;20038;-77
2022/11/24 06:30:00;;;;;;;82.38;37.05;;;;;;;0.49;100.00;99862.47;5082242;28;20357;-77
2022/11/24 06:32:25;;;;;;;87.32;38.55;;;;;;;0.54;100.00;99878.81;5117856;28;20103;-77
2022/11/24 06:34:50;;;;;;;89.57;39.20;;;;;;;0.59;100.00;99877.50;5117477;28;20392;-76
2022/11/24 06:37:16;;;;;;;95.95;39.90;;;;;;;0.66;100.00;99885.00;5116591;28;20434;-76
2022/11/24 06:39:42;;;;;;;82.43;37.13;;;;;;;0.70;100.00;99883.69;5116538;28;20023;-77
2022/11/24 06:42:07;;;;;;;90.40;39.88;;;;;;;0.75;100.00;99888.78;5114355;28;20023;-76
2022/11/24 06:44:33;;;;;;;100.22;45.38;;;;;;;0.79;100.00;99894.34;5114588;28;20034;-77
2022/11/24 06:46:58;;;;;;;101.70;43.33;;;;;;;0.83;100.00;99897.84;5096146;28;20024;-77
2022/11/24 06:49:24;;;;;;;106.40;44.47;;;;;;;0.89;100.00;99902.53;5079153;28;20058;-77
2022/11/24 06:51:49;;;;;;;92.65;42.15;;;;;;;0.91;100.00;99902.09;5096044;28;20384;-77
2022/11/24 06:54:19;;;;;;;108.22;48.15;;;;;;;0.90;100.00;99906.13;5114517;28;20068;-77
2022/11/24 06:56:45;;;;;;;103.15;45.38;;;;;;;0.93;100.00;99911.66;5113989;28;20031;-78
2022/11/24 06:59:20;;;;;;;106.32;48.33;;;;;;;0.97;100.00;99918.00;5114119;28;20389;-78
2022/11/24 07:01:46;;;;;;;101.20;42.90;;;;;;;1.00;100.00;99917.16;5095986;28;20034;-77
2022/11/24 07:04:11;;;;;;;97.75;44.85;;;;;;;1.04;100.00;99923.47;5114474;28;20044;-76
2022/11/24 07:06:38;;;;;;;103.43;43.63;;;;;;;1.04;100.00;99926.28;5096588;28;20032;-77
2022/11/24 07:09:04;;;;;;;92.82;40.65;;;;;;;1.17;100.00;99931.22;5116377;28;20107;-77
2022/11/24 07:11:29;;;;;;;92.40;40.15;;;;;;;1.20;100.00;99936.78;5116289;28;20104;-77
2022/11/24 07:13:56;;;;;;;101.15;41.10;;;;;;;1.25;100.00;99930.63;5097840;28;20035;-77
2022/11/24 07:16:23;;;;;;;94.00;42.88;;;;;;;1.34;100.00;99932.81;5116313;28;20027;-77
2022/11/24 07:18:50;;;;;;;93.90;41.05;;;;;;;1.27;100.00;99913.28;5080733;28;20479;-77
2022/11/24 07:21:16;;;;;;;87.03;40.13;;;;;;;1.44;100.00;99941.00;5115174;28;20530;-76
2022/11/24 07:23:42;;;;;;;88.57;38.85;;;;;;;1.49;100.00;99948.13;5115766;28;20031;-77
2022/11/24 07:26:08;;;;;;;90.78;40.60;;;;;;;1.48;100.00;99938.09;5115804;28;20019;-76
2022/11/24 07:28:35;;;;;;;97.55;42.60;;;;;;;1.58;100.00;99955.97;5115916;28;20068;-77
2022/11/24 07:31:05;;;;;;;90.30;41.83;;;;;;;1.63;100.00;99947.78;5115728;28;20031;-77
2022/11/24 07:33:31;;;;;;;88.88;42.60;;;;;;;1.68;100.00;99944.44;5108135;28;20348;-77
2022/11/24 07:35:58;;;;;;;94.50;40.92;;;;;;;1.64;100.00;99940.94;5115236;28;20028;-77
2022/11/24 07:38:24;;;;;;;102.20;41.20;;;;;;;1.74;100.00;99948.31;5115149;28;20031;-77
2022/11/24 07:40:49;;;;;;;115.50;40.88;;;;;;;1.79;100.00;99956.22;5115478;28;20039;-77
2022/11/24 07:43:14;;;;;;;85.97;39.70;;;;;;;1.87;100.00;99954.00;5097424;28;20114;-77
2022/11/24 07:45:40;;;;;;;89.65;37.72;;;;;;;1.94;100.00;99944.59;5115767;28;20035;-77
2022/11/24 07:48:05;;;;;;;91.82;40.47;;;;;;;2.02;100.00;99945.97;5115639;28;20090;-77
2022/11/24 07:50:31;;;;;;;78.85;36.67;;;;;;;2.09;100.00;99951.44;5096665;28;20028;-77
2022/11/24 07:53:01;;;;;;;87.63;38.78;;;;;;;2.17;100.00;99952.81;5114949;28;20487;-76
2022/11/24 07:55:26;;;;;;;82.60;37.78;;;;;;;2.24;100.00;99944.16;5115340;28;20035;-77
2022/11/24 07:57:51;;;;;;;85.45;37.72;;;;;;;2.33;100.00;99952.78;5115309;28;20032;-77
2022/11/24 08:00:17;;;;;;;118.55;40.38;;;;;;;2.42;100.00;99950.09;5115329;28;20047;-77
2022/11/24 08:02:42;;;;;;;89.57;38.17;;;;;;;2.49;100.00;99943.47;5115381;28;20024;-78
2022/11/24 08:05:08;;;;;;;94.95;41.08;;;;;;;2.54;100.00;99938.03;5114883;28;20515;-76
2022/11/24 08:07:33;;;;;;;93.03;40.80;;;;;;;2.55;100.00;99936.03;5114846;28;20087;-77
2022/11/24 08:09:58;;;;;;;108.50;40.05;;;;;;;2.50;100.00;99940.19;5114984;28;20031;-77
2022/11/24 08:12:24;;;;;;;97.60;38.88;;;;;;;2.48;100.00;99933.41;5096976;28;20080;-77
2022/11/24 08:14:49;;;;;;;107.32;42.53;;;;;;;2.48;100.00;99931.41;5114807;28;20043;-77
2022/11/24 08:17:18;;;;;;;101.95;44.17;;;;;;;2.49;100.00;99938.59;5115018;28;20074;-78
2022/11/24 08:19:43;;;;;;;103.47;44.17;;;;;;;2.54;100.00;99940.09;5114930;28;20047;-78
2022/11/24 08:22:09;;;;;;;101.82;45.00;;;;;;;2.64;100.00;99938.97;5114568;28;20062;-78
2022/11/24 08:24:36;;;;;;;92.70;44.70;;;;;;;2.67;100.00;99946.56;5096943;28;20028;-77
2022/11/24 08:27:01;;;;;;;99.47;40.55;;;;;;;2.74;100.00;99944.31;5107292;28;20059;-77
2022/11/24 08:29:31;;;;;;;87.95;40.95;;;;;;;2.79;100.00;99954.25;5107711;28;20443;-77
2022/11/24 08:31:58;;;;;;;86.22;39.97;;;;;;;2.83;100.00;99948.50;5091420;28;20412;-76
2022/11/24 08:34:24;;;;;;;90.88;39.55;;;;;;;2.88;100.00;99957.22;5113058;28;20039;-75
2022/11/24 08:36:50;;;;;;;92.55;39.85;;;;;;;2.99;100.00;99959.69;5113948;28;20168;-78
2022/11/24 08:39:24;;;;;;;85.03;40.58;;;;;;;3.05;100.00;99963.53;5098439;27;20043;-79
2022/11/24 08:41:50;;;;;;;93.95;41.78;;;;;;;3.16;100.00;99969.66;5095505;28;20524;-76
2022/11/24 08:44:17;;;;;;;92.93;39.20;;;;;;;3.22;100.00;99959.41;5114349;28;20038;-77
2022/11/24 08:46:43;;;;;;;83.22;38.45;;;;;;;3.31;100.00;99964.34;5114202;28;20020;-78
2022/11/24 08:49:13;;;;;;;86.50;39.47;;;;;;;3.36;100.00;99964.59;5096629;28;20495;-78
2022/11/24 08:51:40;;;;;;;78.20;36.08;;;;;;;3.47;100.00;99962.22;5099292;28;20054;-78
2022/11/24 08:54:05;;;;;;;71.47;33.75;;;;;;;3.59;100.00;99975.53;5112758;28;20065;-78
2022/11/24 08:56:32;;;;;;;77.78;34.83;;;;;;;3.61;100.00;99975.88;5119331;27;20116;-75
2022/11/24 08:58:59;;;;;;;71.28;33.92;;;;;;;3.71;100.00;99973.16;5134193;27;20023;-76
2022/11/24 09:01:25;;;;;;;76.68;36.05;;;;;;;3.85;100.00;99972.66;5111138;28;20050;-76
2022/11/24 09:03:51;;;;;;;72.70;32.53;;;;;;;3.93;100.00;99976.84;5095323;28;20081;-77
2022/11/24 09:06:21;;;;;;;65.07;31.50;;;;;;;4.03;100.00;99990.63;5096403;28;20020;-76
2022/11/24 09:08:47;;;;;;;64.00;32.28;;;;;;;4.14;100.00;99989.47;5096801;28;20036;-76
2022/11/24 09:11:15;;;;;;;64.88;29.50;;;;;;;4.18;100.00;99993.75;5079436;28;20046;-77
2022/11/24 09:13:42;;;;;;;67.78;30.05;;;;;;;4.24;100.00;99985.50;5062567;28;20040;-76
2022/11/24 09:16:13;;;;;;;72.00;32.30;;;;;;;4.39;100.00;99980.91;5096154;28;20032;-76
2022/11/24 09:18:40;;;;;;;62.05;30.67;;;;;;;4.32;100.00;99989.63;5114084;28;20032;-76
2022/11/24 09:21:13;;;;;;;69.82;32.22;;;;;;;4.36;100.00;99993.16;5079428;28;20048;-76
2022/11/24 09:23:40;;;;;;;61.08;29.45;;;;;;;4.46;100.00;99987.09;5114098;28;20027;-75
2022/11/24 09:26:09;;;;;;;63.20;29.55;;;;;;;4.51;100.00;99983.69;5095895;28;20040;-75
2022/11/24 09:28:35;;;;;;;76.95;32.17;;;;;;;4.59;100.00;99984.22;5095894;28;20047;-78
2022/11/24 09:31:07;;;;;;;76.05;32.20;;;;;;;4.67;100.00;99985.53;5114533;28;20031;-76
2022/11/24 09:33:34;;;;;;;78.57;31.40;;;;;;;4.71;100.00;99983.34;5096307;28;20032;-77
2022/11/24 09:36:08;;;;;;;75.50;31.63;;;;;;;4.81;100.00;99995.53;5096063;28;20035;-76
2022/11/24 09:38:35;;;;;;;71.88;29.13;;;;;;;4.94;100.00;99999.09;5095569;28;20023;-76
2022/11/24 09:41:28;;;;;;;74.20;29.50;;;;;;;5.00;100.00;99985.94;5096073;28;20239;-77
2022/11/24 09:44:20;;;;;;;74.28;28.67;;;;;;;5.12;100.00;99993.53;5115422;28;20353;-76
2022/11/24 09:46:52;;;;;;;71.80;28.92;;;;;;;5.23;100.00;99993.13;5118484;28;20480;-76
2022/11/24 09:49:29;;;;;;;69.32;30.00;;;;;;;5.31;100.00;99992.38;5117877;28;20035;-75
2022/11/24 09:51:56;;;;;;;79.72;31.20;;;;;;;5.43;100.00;99981.44;5099749;28;20030;-75
2022/11/24 09:54:25;;;;;;;73.03;31.50;;;;;;;5.55;100.00;99986.22;5100143;28;20424;-76
2022/11/24 09:56:51;;;;;;;78.38;31.73;;;;;;;5.64;100.00;99981.38;5118158;28;20035;-77
2022/11/24 09:59:21;;;;;;;75.85;32.30;;;;;;;5.77;100.00;99972.72;5118065;28;20119;-77
2022/11/24 10:01:49;;;;;;;69.38;30.85;;;;;;;5.92;100.00;99976.56;5118067;28;20088;-77
2022/11/24 10:04:15;;;;;;;74.80;32.55;;;;;;;5.98;100.00;99985.25;5099476;28;20153;-77
2022/11/24 10:06:47;;;;;;;72.43;33.83;;;;;;;5.99;100.00;99976.25;5118308;28;20088;-78
2022/11/24 10:09:37;;;;;;;73.03;33.10;;;;;;;6.13;100.00;99983.38;5099489;28;20035;-78
2022/11/24 10:12:14;;;;;;;78.75;33.50;;;;;;;6.24;100.00;99992.19;5117552;28;20522;-76
2022/11/24 10:14:59;;;;;;;84.57;36.08;;;;;;;6.26;100.00;99978.34;5117275;28;20072;-76
2022/11/24 10:17:54;;;;;;;73.00;32.88;;;;;;;6.29;100.00;99982.31;5099941;28;20058;-79
2022/11/24 10:20:53;;;;;;;80.38;32.92;;;;;;;6.24;100.00;99975.19;5119262;28;20028;-78
2022/11/24 10:23:52;;;;;;;80.88;35.50;;;;;;;6.15;100.00;99980.84;5134057;28;20024;-78
2022/11/24 10:26:38;;;;;;;89.15;35.72;;;;;;;6.07;100.00;99980.38;5105137;28;20015;-76
2022/11/24 10:29:26;;;;;;;85.22;36.33;;;;;;;6.05;100.00;99980.03;5100096;28;20123;-76
2022/11/24 10:31:55;;;;;;;83.95;36.25;;;;;;;6.04;100.00;99972.03;5117610;28;20032;-76
2022/11/24 10:34:24;;;;;;;81.55;35.90;;;;;;;5.96;100.00;99976.41;5098350;28;20093;-77
2022/11/24 10:36:53;;;;;;;86.93;37.65;;;;;;;5.94;100.00;99976.88;5117409;28;20380;-77
2022/11/24 10:39:31;;;;;;;81.32;35.00;;;;;;;5.95;100.00;99980.50;5116954;28;20027;-77
2022/11/24 10:42:12;;;;;;;91.70;37.78;;;;;;;5.97;100.00;99984.44;5098424;28;20059;-76
2022/11/24 10:44:38;;;;;;;92.47;35.42;;;;;;;6.04;100.00;99983.38;5098824;28;20024;-77
2022/11/24 10:47:18;;;;;;;87.03;35.90;;;;;;;6.02;100.00;99980.19;5081892;28;20123;-76
2022/11/24 10:50:01;;;;;;;86.47;36.45;;;;;;;5.95;100.00;99980.50;5098387;28;20027;-77
2022/11/24 10:52:44;;;;;;;83.57;38.05;;;;;;;5.82;100.00;99972.91;5096197;28;20039;-77
2022/11/24 10:55:12;;;;;;;81.28;34.42;;;;;;;5.82;100.00;99978.59;5080534;28;20349;-75
2022/11/24 10:57:39;;;;;;;86.13;36.25;;;;;;;5.88;100.00;99969.47;5098496;28;20059;-76
2022/11/24 11:00:21;;;;;;;80.00;35.65;;;;;;;5.96;100.00;99979.25;5116860;28;20023;-77
2022/11/24 11:03:32;;;;;;;80.53;34.75;;;;;;;6.01;100.00;99979.41;5115649;28;20043;-76
2022/11/24 11:06:11;;;;;;;82.20;34.35;;;;;;;5.97;100.00;99990.13;5053487;28;20061;-77
2022/11/24 11:09:06;;;;;;;78.13;33.67;;;;;;;6.01;100.00;99993.59;5053667;28;20041;-78
2022/11/24 11:11:34;;;;;;;75.75;34.75;;;;;;;5.97;100.00;99987.28;5053890;28;20106;-76
2022/11/24 11:14:05;;;;;;;76.20;33.70;;;;;;;5.99;100.00;99986.81;5038463;28;20473;-78
2022/11/24 11:17:23;;;;;;;75.93;34.50;;;;;;;5.96;100.00;99987.75;5077936;28;20114;-78
2022/11/24 11:19:51;;;;;;;82.35;33.97;;;;;;;5.93;100.00;99986.66;5013384;28;20438;-76